Terminal Aerodrome Forecast
Issued by NWS Mt. Holly, NJ

Home | Current Version | Previous Version | Text Only | Print | Product List | Glossary On
Versions: 1 2 3 4 5 6 7 8 9 10 11 12 13 14 15 16 17
000
FTUS41 KPHI 230759 AAC
TAFTTN
TAF AMD
KTTN 230759Z 2308/2406 11003KT 4SM BR OVC002
     FM231200 14005KT 6SM BR OVC010
     FM231500 16006KT P6SM OVC025
     FM231800 16010KT P6SM OVC040=

USA.gov is the U.S. government's official web portal to all federal, state and local government web resources and services.